createdAt,value
2018-05-21T00:01:41.118Z,1.67
2018-05-21T00:04:08.641Z,2.17
2018-05-21T00:06:36.158Z,1.80
2018-05-21T00:09:04.159Z,1.70
2018-05-21T00:11:31.666Z,1.45
2018-05-21T00:13:59.164Z,1.80
2018-05-21T00:16:26.704Z,1.80
2018-05-21T00:18:54.861Z,1.58
2018-05-21T00:21:22.381Z,1.73
2018-05-21T00:23:50.640Z,1.65
2018-05-21T00:26:18.758Z,1.83
2018-05-21T00:28:46.273Z,1.60
2018-05-21T00:31:13.788Z,1.95
2018-05-21T00:33:41.325Z,1.73
2018-05-21T00:36:10.242Z,1.70
2018-05-21T00:38:37.745Z,1.65
2018-05-21T00:41:05.264Z,2.00
2018-05-21T00:43:32.828Z,1.60
2018-05-21T00:46:00.347Z,1.70
2018-05-21T00:48:28.631Z,1.60
2018-05-21T00:50:56.908Z,1.92
2018-05-21T00:53:25.172Z,1.70
2018-05-21T00:55:53.446Z,1.80
2018-05-21T00:58:21.722Z,1.40
2018-05-21T01:00:49.994Z,1.50
2018-05-21T01:03:17.527Z,1.60
2018-05-21T01:05:45.036Z,1.85
2018-05-21T01:08:13.304Z,1.87
2018-05-21T01:10:41.590Z,1.62
2018-05-21T01:13:09.837Z,1.85
2018-05-21T01:15:38.001Z,1.85
2018-05-21T01:18:09.416Z,1.70
2018-05-21T01:20:36.966Z,1.77
2018-05-21T01:23:04.469Z,1.70
2018-05-21T01:25:32.048Z,1.87
2018-05-21T01:27:59.553Z,2.05
2018-05-21T01:30:31.434Z,1.90
2018-05-21T01:32:58.956Z,1.67
2018-05-21T01:35:26.456Z,2.00
2018-05-21T01:37:53.964Z,1.60
2018-05-21T01:40:22.302Z,1.92
2018-05-21T01:42:49.777Z,2.30
2018-05-21T01:45:17.275Z,1.95
2018-05-21T01:47:44.783Z,1.90
2018-05-21T01:50:12.874Z,1.87
2018-05-21T01:52:40.382Z,2.05
2018-05-21T01:55:07.904Z,1.80
2018-05-21T01:57:36.167Z,1.98
2018-05-21T02:00:04.447Z,2.15
2018-05-21T02:02:32.714Z,2.00
2018-05-21T02:05:00.845Z,1.73
2018-05-21T02:07:32.481Z,1.70
2018-05-21T02:09:59.991Z,1.95
2018-05-21T02:12:27.499Z,1.80
2018-05-21T02:14:55.022Z,2.10
2018-05-21T02:17:22.597Z,2.00
2018-05-21T02:19:50.904Z,1.80
2018-05-21T02:22:18.417Z,1.90
2018-05-21T02:24:45.917Z,2.05
2018-05-21T02:27:17.402Z,1.90
2018-05-21T02:29:44.902Z,1.90
2018-05-21T02:32:13.264Z,2.20
2018-05-21T02:34:40.786Z,1.98
2018-05-21T02:37:08.347Z,1.85
2018-05-21T02:39:36.412Z,1.85
2018-05-21T02:42:03.924Z,2.00
2018-05-21T02:44:32.309Z,1.87
2018-05-21T02:47:00.579Z,1.85
2018-05-21T02:49:28.114Z,1.95
2018-05-21T02:51:55.616Z,2.25
2018-05-21T02:54:23.912Z,1.95
2018-05-21T02:56:51.400Z,2.20
2018-05-21T02:59:18.921Z,2.05
2018-05-21T03:01:47.111Z,1.80
2018-05-21T03:04:14.626Z,2.40
2018-05-21T03:06:42.125Z,2.10
2018-05-21T03:09:09.634Z,2.40
2018-05-21T03:11:37.149Z,2.58
2018-05-21T03:14:04.677Z,2.20
2018-05-21T03:16:33.256Z,2.00
2018-05-21T03:19:01.526Z,2.08
2018-05-21T03:21:29.807Z,2.28
2018-05-21T03:23:58.128Z,1.90
2018-05-21T03:26:25.645Z,2.10
2018-05-21T03:28:53.904Z,2.20
2018-05-21T03:31:21.411Z,2.17
2018-05-21T03:33:49.209Z,2.15
2018-05-21T03:36:20.842Z,1.98
2018-05-21T03:38:48.354Z,2.15
2018-05-21T03:41:16.614Z,2.37
2018-05-21T03:43:44.157Z,2.20
2018-05-21T03:46:11.662Z,2.20
2018-05-21T03:48:39.501Z,2.00
2018-05-21T03:51:07.008Z,2.30
2018-05-21T03:53:34.513Z,2.05
2018-05-21T03:56:02.342Z,2.20
2018-05-21T04:01:45.322Z,2.62
2018-05-21T04:04:12.930Z,2.35
2018-05-21T04:06:40.438Z,2.33
2018-05-21T04:09:07.945Z,2.12
2018-05-21T04:11:35.452Z,2.20
2018-05-21T04:14:03.031Z,2.50
2018-05-21T04:16:31.243Z,2.47
2018-05-21T04:18:58.878Z,2.30
2018-05-21T04:21:27.165Z,2.10
2018-05-21T04:23:54.699Z,2.08
2018-05-21T04:26:22.217Z,2.45
2018-05-21T04:28:50.680Z,2.70
2018-05-21T04:31:18.156Z,2.50
2018-05-21T04:33:45.693Z,2.22
2018-05-21T04:36:13.212Z,2.28
2018-05-21T04:38:40.722Z,2.15
2018-05-21T04:41:08.621Z,2.28
2018-05-21T04:43:36.110Z,2.35
2018-05-21T04:46:03.608Z,2.20
2018-05-21T04:48:31.117Z,2.60
2018-05-21T04:50:58.617Z,2.42
2018-05-21T04:53:26.126Z,2.60
2018-05-21T04:55:53.617Z,2.30
2018-05-21T04:58:21.900Z,2.47
2018-05-21T05:00:50.170Z,2.67
2018-05-21T05:03:19.392Z,2.70
2018-05-21T05:05:46.892Z,2.35
2018-05-21T05:08:14.393Z,2.45
2018-05-21T05:10:42.697Z,2.45
2018-05-21T05:13:10.192Z,2.55
2018-05-21T05:15:37.707Z,2.90
2018-05-21T05:18:05.192Z,2.53
2018-05-21T05:20:32.710Z,3.00
2018-05-21T05:23:04.021Z,2.70
2018-05-21T05:25:31.545Z,2.97
2018-05-21T05:27:59.061Z,3.08
2018-05-21T05:30:27.331Z,3.28
2018-05-21T05:32:54.838Z,3.25
2018-05-21T05:35:22.336Z,2.60
2018-05-21T05:37:49.856Z,2.92
2018-05-21T05:40:17.366Z,3.37
2018-05-21T05:42:44.873Z,3.08
2018-05-21T05:45:12.366Z,2.92
2018-05-21T05:47:39.917Z,3.03
2018-05-21T05:50:07.418Z,2.87
2018-05-21T05:52:35.701Z,2.70
2018-05-21T05:55:03.204Z,2.90
2018-05-21T05:57:30.699Z,2.97
2018-05-21T05:59:58.979Z,3.08
2018-05-21T06:02:27.237Z,2.87
2018-05-21T06:04:54.746Z,3.42
2018-05-21T06:07:22.245Z,2.97
2018-05-21T06:09:49.767Z,3.03
2018-05-21T06:12:17.276Z,3.15
2018-05-21T06:14:44.782Z,3.12
2018-05-21T06:17:12.287Z,3.37
2018-05-21T06:19:39.807Z,3.15
2018-05-21T06:22:07.304Z,3.12
2018-05-21T06:24:34.818Z,3.22
2018-05-21T06:27:02.369Z,3.33
2018-05-21T06:29:29.937Z,3.85
2018-05-21T06:31:57.483Z,3.40
2018-05-21T06:34:25.811Z,3.53
2018-05-21T06:36:53.269Z,3.55
2018-05-21T06:39:21.548Z,3.37
2018-05-21T06:41:49.045Z,3.50
2018-05-21T06:44:17.311Z,3.10
2018-05-21T06:46:45.592Z,3.83
2018-05-21T06:49:13.899Z,3.83
2018-05-21T06:51:41.414Z,3.95
2018-05-21T06:54:08.908Z,3.75
2018-05-21T06:56:36.423Z,3.72
2018-05-21T06:59:04.018Z,4.10
2018-05-21T07:01:32.292Z,3.70
2018-05-21T07:04:00.613Z,3.15
2018-05-21T07:06:28.118Z,3.40
2018-05-21T07:08:56.441Z,3.53
2018-05-21T07:11:23.931Z,3.67
2018-05-21T07:13:51.458Z,3.80
2018-05-21T07:16:18.969Z,3.87
2018-05-21T07:18:46.496Z,3.70
2018-05-21T07:34:19.054Z,3.83
2018-05-21T07:36:46.573Z,3.70
2018-05-21T07:39:14.850Z,3.50
2018-05-21T07:41:43.130Z,3.83
2018-05-21T07:44:10.741Z,3.70
2018-05-21T07:46:38.246Z,3.35
2018-05-21T07:49:06.732Z,3.40
2018-05-21T07:51:35.057Z,3.58
2018-05-21T07:54:02.522Z,3.45
2018-05-21T07:56:30.070Z,3.12
2018-05-21T07:58:57.650Z,3.35
2018-05-21T08:01:25.300Z,3.42
2018-05-21T08:03:52.811Z,3.58
2018-05-21T08:06:20.316Z,3.28
2018-05-21T08:08:47.857Z,3.17
2018-05-21T08:11:15.376Z,3.10
2018-05-21T08:13:43.674Z,3.10
2018-05-21T08:16:11.172Z,3.22
2018-05-21T08:18:38.843Z,3.58
2018-05-21T08:21:06.347Z,3.10
2018-05-21T08:23:33.846Z,3.30
2018-05-21T08:26:01.363Z,3.28
2018-05-21T08:28:29.353Z,3.00
2018-05-21T08:30:56.869Z,3.10
2018-05-21T08:33:24.374Z,2.92
2018-05-21T08:35:51.886Z,2.72
2018-05-21T08:38:19.377Z,2.87
2018-05-21T08:40:46.890Z,2.97
2018-05-21T08:43:14.381Z,3.10
2018-05-21T08:45:42.667Z,3.03
2018-05-21T08:48:10.190Z,2.60
2018-05-21T08:50:37.709Z,2.50
2018-05-21T08:53:05.213Z,2.60
2018-05-21T08:55:32.716Z,2.40
2018-05-21T08:58:00.228Z,2.70
2018-05-21T09:00:28.082Z,2.70
2018-05-21T09:02:55.589Z,2.75
2018-05-21T09:05:23.098Z,2.95
2018-05-21T09:07:50.644Z,2.60
2018-05-21T09:10:18.153Z,2.58
2018-05-21T09:12:47.020Z,2.58
2018-05-21T09:15:14.513Z,2.60
2018-05-21T09:17:42.017Z,2.42
2018-05-21T09:20:09.521Z,2.85
2018-05-21T09:22:37.819Z,2.55
2018-05-21T09:25:05.320Z,2.50
2018-05-21T09:27:32.828Z,2.40
2018-05-21T09:30:00.837Z,2.60
2018-05-21T09:32:28.408Z,2.67
2018-05-21T09:34:56.166Z,2.50
2018-05-21T09:37:23.658Z,2.72
2018-05-21T09:39:51.941Z,2.30
2018-05-21T09:42:20.197Z,2.47
2018-05-21T09:44:47.708Z,2.28
2018-05-21T09:47:15.205Z,2.45
2018-05-21T09:49:42.718Z,2.58
2018-05-21T09:52:10.681Z,2.50
2018-05-21T09:54:38.185Z,2.62
2018-05-21T09:57:05.756Z,2.53
2018-05-21T09:59:33.257Z,2.70
2018-05-21T10:02:02.212Z,2.30
2018-05-21T10:04:29.709Z,2.55
2018-05-21T10:06:57.230Z,2.60
2018-05-21T10:09:25.597Z,2.55
2018-05-21T10:11:53.114Z,2.60
2018-05-21T10:14:20.618Z,2.58
2018-05-21T10:16:48.136Z,2.80
2018-05-21T10:19:15.671Z,2.70
2018-05-21T10:21:44.016Z,2.65
2018-05-21T10:24:11.510Z,2.22
2018-05-21T10:26:39.033Z,2.42
2018-05-21T10:29:06.556Z,2.60
2018-05-21T10:31:34.250Z,2.58
2018-05-21T10:34:01.872Z,2.22
2018-05-21T10:36:29.387Z,2.65
2018-05-21T10:38:56.912Z,2.78
2018-05-21T10:41:24.409Z,2.42
2018-05-21T10:43:51.931Z,2.55
2018-05-21T10:46:20.350Z,2.33
2018-05-21T10:48:47.923Z,2.62
2018-05-21T10:51:16.199Z,2.45
2018-05-21T10:53:43.757Z,2.30
2018-05-21T10:56:12.088Z,2.25
2018-05-21T10:58:39.576Z,2.90
2018-05-21T11:01:07.099Z,2.53
2018-05-21T11:03:34.612Z,2.47
2018-05-21T11:06:02.918Z,2.60
2018-05-21T11:08:30.446Z,2.58
2018-05-21T11:10:58.725Z,2.33
2018-05-21T11:13:27.005Z,2.90
2018-05-21T11:15:55.271Z,2.35
2018-05-21T11:18:22.785Z,2.67
2018-05-21T11:20:50.287Z,3.22
2018-05-21T11:23:17.801Z,2.22
2018-05-21T11:25:45.301Z,2.90
2018-05-21T11:28:12.840Z,2.45
2018-05-21T11:30:40.387Z,2.33
2018-05-21T11:33:07.900Z,2.62
2018-05-21T11:35:36.169Z,2.40
2018-05-21T11:38:04.443Z,2.90
2018-05-21T11:40:32.741Z,2.60
2018-05-21T11:43:00.251Z,2.60
2018-05-21T11:45:27.773Z,2.40
2018-05-21T11:47:55.976Z,2.30
2018-05-21T11:50:23.489Z,2.40
2018-05-21T11:52:51.025Z,2.20
2018-05-21T11:55:18.534Z,2.30
2018-05-21T11:57:46.058Z,3.42
2018-05-21T12:00:14.410Z,2.40
2018-05-21T12:02:41.916Z,1.90
2018-05-21T12:05:09.434Z,2.00
2018-05-21T12:07:36.986Z,1.95
2018-05-21T12:10:04.487Z,2.45
2018-05-21T12:12:32.002Z,2.08
2018-05-21T12:14:59.566Z,2.20
2018-05-21T12:17:27.068Z,2.40
2018-05-21T12:19:54.589Z,2.20
2018-05-21T12:22:22.166Z,1.83
2018-05-21T12:24:49.616Z,2.65
2018-05-21T12:27:17.900Z,2.17
2018-05-21T12:29:46.170Z,1.80
2018-05-21T12:32:14.449Z,2.30
2018-05-21T12:34:42.884Z,2.10
2018-05-21T12:37:10.394Z,1.95
2018-05-21T12:39:38.674Z,2.50
2018-05-21T12:42:06.948Z,2.30
2018-05-21T12:44:35.211Z,2.10
2018-05-21T12:47:02.718Z,2.17
2018-05-21T12:49:30.271Z,2.20
2018-05-21T12:51:57.799Z,3.00
2018-05-21T12:54:26.089Z,2.28
2018-05-21T12:56:54.359Z,2.12
2018-05-21T12:59:22.641Z,2.10
2018-05-21T13:01:50.906Z,2.42
2018-05-21T13:04:19.189Z,2.28
2018-05-21T13:06:47.464Z,2.20
2018-05-21T13:09:15.738Z,2.37
2018-05-21T13:11:44.001Z,2.05
2018-05-21T13:14:11.527Z,2.22
2018-05-21T13:16:39.032Z,1.80
2018-05-21T13:19:07.344Z,2.17
2018-05-21T13:21:34.848Z,2.08
2018-05-21T13:24:02.542Z,2.00
2018-05-21T13:26:30.673Z,1.83
2018-05-21T13:28:58.177Z,2.40
2018-05-21T13:31:26.494Z,2.08
2018-05-21T13:33:54.207Z,1.92
2018-05-21T13:36:22.498Z,1.77
2018-05-21T13:38:50.767Z,1.90
2018-05-21T13:41:19.165Z,2.08
2018-05-21T13:43:46.593Z,2.00
2018-05-21T13:46:14.957Z,1.92
2018-05-21T13:48:43.164Z,2.05
2018-05-21T13:51:10.681Z,1.73
2018-05-21T13:53:38.174Z,1.90
2018-05-21T13:56:06.434Z,1.90
2018-05-21T13:58:33.962Z,1.90
2018-05-21T14:01:01.462Z,2.05
2018-05-21T14:03:29.754Z,2.00
2018-05-21T14:05:58.024Z,1.70
2018-05-21T14:08:26.309Z,2.10
2018-05-21T14:10:53.813Z,1.70
2018-05-21T14:13:21.820Z,1.90
2018-05-21T14:15:50.089Z,1.45
2018-05-21T14:18:17.649Z,1.87
2018-05-21T14:20:45.152Z,1.73
2018-05-21T14:23:12.661Z,1.80
2018-05-21T14:25:40.198Z,1.60
2018-05-21T14:28:07.700Z,2.00
2018-05-21T14:30:36.022Z,1.98
2018-05-21T14:33:03.630Z,1.80
2018-05-21T14:35:31.146Z,1.70
2018-05-21T14:37:58.644Z,1.90
2018-05-21T14:40:26.161Z,2.28
2018-05-21T14:42:53.653Z,1.80
2018-05-21T14:45:21.173Z,1.90
2018-05-21T14:47:48.679Z,2.05
2018-05-21T14:50:16.237Z,1.52
2018-05-21T14:52:43.745Z,2.10
2018-05-21T14:55:11.270Z,2.10
2018-05-21T14:57:39.586Z,2.00
2018-05-21T15:00:07.171Z,1.95
2018-05-21T15:02:34.675Z,2.00
2018-05-21T15:05:03.028Z,2.17
2018-05-21T15:07:30.573Z,1.80
2018-05-21T15:09:59.015Z,2.47
2018-05-21T15:12:26.565Z,2.15
2018-05-21T15:14:54.072Z,2.03
2018-05-21T15:17:21.608Z,1.75
2018-05-21T15:19:49.124Z,1.90
2018-05-21T15:22:17.548Z,2.17
2018-05-21T15:24:44.920Z,1.98
2018-05-21T15:27:12.569Z,2.10
2018-05-21T15:29:40.114Z,2.22
2018-05-21T15:32:07.633Z,2.20
2018-05-21T15:34:35.908Z,4.05
2018-05-21T15:37:04.195Z,2.10
2018-05-21T15:39:32.469Z,2.40
2018-05-21T15:42:00.820Z,1.95
2018-05-21T15:44:28.346Z,2.17
2018-05-21T15:46:55.861Z,2.85
2018-05-21T15:49:24.149Z,2.40
2018-05-21T15:51:52.421Z,2.97
2018-05-21T15:54:20.705Z,2.30
2018-05-21T15:56:48.987Z,2.30
2018-05-21T15:59:17.284Z,2.15
2018-05-21T16:01:44.789Z,2.35
2018-05-21T16:04:12.304Z,2.00
2018-05-21T16:06:39.798Z,2.22
2018-05-21T16:09:07.387Z,2.20
2018-05-21T16:11:34.827Z,2.20
2018-05-21T16:14:02.331Z,2.15
2018-05-21T16:16:29.835Z,2.20
2018-05-21T16:18:57.334Z,2.40
2018-05-21T16:21:25.715Z,2.00
2018-05-21T16:23:53.205Z,2.42
2018-05-21T16:26:20.725Z,2.50
2018-05-21T16:28:48.998Z,2.45
2018-05-21T16:31:17.295Z,2.33
2018-05-21T16:33:44.811Z,2.55
2018-05-21T16:36:12.311Z,2.80
2018-05-21T16:38:39.856Z,2.50
2018-05-21T16:41:08.132Z,2.10
2018-05-21T16:43:36.422Z,2.37
2018-05-21T16:46:03.941Z,2.67
2018-05-21T16:48:31.561Z,2.40
2018-05-21T16:50:59.066Z,2.50
2018-05-21T16:53:26.597Z,2.60
2018-05-21T16:55:54.115Z,2.33
2018-05-21T16:58:21.674Z,4.30
2018-05-21T17:00:49.960Z,2.60
2018-05-21T17:03:17.496Z,2.37
2018-05-21T17:05:49.647Z,2.50
2018-05-21T17:08:17.217Z,2.42
2018-05-21T17:10:44.739Z,2.55
2018-05-21T17:13:12.243Z,2.47
2018-05-21T17:15:40.517Z,6.25
2018-05-21T17:18:08.809Z,3.90
2018-05-21T17:20:36.362Z,2.97
2018-05-21T17:23:04.634Z,2.70
2018-05-21T17:25:32.956Z,2.72
2018-05-21T17:28:00.473Z,2.30
2018-05-21T17:30:28.753Z,2.62
2018-05-21T17:32:57.013Z,2.47
2018-05-21T17:35:24.555Z,2.60
2018-05-21T17:37:52.077Z,2.40
2018-05-21T17:40:19.615Z,2.37
2018-05-21T17:42:47.137Z,2.97
2018-05-21T17:45:14.629Z,2.80
2018-05-21T17:47:42.939Z,2.72
2018-05-21T17:50:10.514Z,2.85
2018-05-21T17:52:38.027Z,2.75
2018-05-21T17:55:06.307Z,3.42
2018-05-21T17:57:34.726Z,2.80
2018-05-21T18:00:02.229Z,3.40
2018-05-21T18:02:30.518Z,2.80
2018-05-21T18:04:58.797Z,3.75
2018-05-21T18:07:31.072Z,3.85
2018-05-21T18:09:59.501Z,4.45
2018-05-21T18:12:27.012Z,3.28
2018-05-21T18:14:54.518Z,3.30
2018-05-21T18:17:22.027Z,3.10
2018-05-21T18:19:50.323Z,3.30
2018-05-21T18:22:17.849Z,2.97
2018-05-21T18:24:46.165Z,2.97
2018-05-21T18:27:14.346Z,2.95
2018-05-21T18:29:41.880Z,3.72
2018-05-21T18:32:09.455Z,7.18
2018-05-21T18:34:36.977Z,3.03
2018-05-21T18:37:04.509Z,2.80
2018-05-21T18:39:32.082Z,3.30
2018-05-21T18:41:59.582Z,3.50
2018-05-21T18:44:27.111Z,3.10
2018-05-21T18:46:54.653Z,2.97
2018-05-21T18:49:22.444Z,2.92
2018-05-21T18:51:50.736Z,3.00
2018-05-21T18:54:19.013Z,3.28
2018-05-21T18:56:46.572Z,2.60
2018-05-21T18:59:14.838Z,3.15
2018-05-21T19:01:43.400Z,3.12
2018-05-21T19:04:10.891Z,3.45
2018-05-21T19:06:39.183Z,4.12
2018-05-21T19:09:06.701Z,3.47
2018-05-21T19:11:34.234Z,2.80
2018-05-21T19:14:01.761Z,3.47
2018-05-21T19:16:29.258Z,3.45
2018-05-21T19:18:56.783Z,2.90
2018-05-21T19:21:24.293Z,4.35
2018-05-21T19:23:51.822Z,3.00
2018-05-21T19:26:19.435Z,3.10
2018-05-21T19:28:47.734Z,3.87
2018-05-21T19:31:15.266Z,3.20
2018-05-21T19:33:43.526Z,2.83
2018-05-21T19:36:11.046Z,2.83
2018-05-21T19:38:38.567Z,3.00
2018-05-21T19:41:06.852Z,4.80
2018-05-21T19:43:35.112Z,3.12
2018-05-21T19:46:03.423Z,3.50
2018-05-21T19:48:30.918Z,2.90
2018-05-21T19:50:58.425Z,2.83
2018-05-21T19:53:25.928Z,2.78
2018-05-21T19:55:53.480Z,2.85
2018-05-21T19:58:21.333Z,2.92
2018-05-21T20:00:48.865Z,6.68
2018-05-21T20:03:17.163Z,2.80
2018-05-21T20:05:44.938Z,3.08
2018-05-21T20:08:12.685Z,2.80
2018-05-21T20:10:40.200Z,2.87
2018-05-21T20:13:07.724Z,3.33
2018-05-21T20:15:35.235Z,2.85
2018-05-21T20:18:03.513Z,2.50
2018-05-21T20:20:42.728Z,2.62
2018-05-21T20:23:10.261Z,2.85
2018-05-21T20:25:37.769Z,2.65
2018-05-21T20:28:06.094Z,2.58
2018-05-21T20:30:33.596Z,2.70
2018-05-21T20:33:01.134Z,2.28
2018-05-21T20:35:29.105Z,4.12
2018-05-21T20:37:56.658Z,3.87
2018-05-21T20:40:24.917Z,3.30
2018-05-21T20:42:52.441Z,2.47
2018-05-21T20:45:20.843Z,2.25
2018-05-21T20:47:48.267Z,2.30
2018-05-21T20:50:16.566Z,2.08
2018-05-21T20:52:44.058Z,2.47
2018-05-21T20:55:11.591Z,2.65
2018-05-21T20:57:39.085Z,2.85
2018-05-21T21:00:06.622Z,2.47
2018-05-21T21:02:34.126Z,2.28
2018-05-21T21:05:01.638Z,2.47
2018-05-21T21:07:29.137Z,2.40
2018-05-21T21:09:56.653Z,2.95
2018-05-21T21:12:24.151Z,2.65
2018-05-21T21:14:51.669Z,2.30
2018-05-21T21:17:19.186Z,2.20
2018-05-21T21:19:47.472Z,2.08
2018-05-21T21:22:15.781Z,2.20
2018-05-21T21:24:43.294Z,2.80
2018-05-21T21:27:10.909Z,2.50
2018-05-21T21:29:38.413Z,2.30
2018-05-21T21:32:06.698Z,2.20
2018-05-21T21:34:35.806Z,2.37
2018-05-21T21:37:04.090Z,2.20
2018-05-21T21:39:31.672Z,2.70
2018-05-21T21:41:59.189Z,2.03
2018-05-21T21:44:27.477Z,2.60
2018-05-21T21:46:55.746Z,2.50
2018-05-21T21:49:24.070Z,2.37
2018-05-21T21:51:51.576Z,2.22
2018-05-21T21:54:19.093Z,2.22
2018-05-21T21:56:46.596Z,2.60
2018-05-21T21:59:14.873Z,2.15
2018-05-21T22:01:43.224Z,2.55
2018-05-21T22:04:10.755Z,2.30
2018-05-21T22:06:38.259Z,2.10
2018-05-21T22:09:05.899Z,2.60
2018-05-21T22:11:33.396Z,2.60
2018-05-21T22:14:01.720Z,2.17
2018-05-21T22:16:29.228Z,2.35
2018-05-21T22:18:57.493Z,2.45
2018-05-21T22:21:25.030Z,2.75
2018-05-21T22:23:59.087Z,2.37
2018-05-21T22:26:27.362Z,2.55
2018-05-21T22:28:55.637Z,2.40
2018-05-21T22:31:24.007Z,2.25
2018-05-21T22:33:51.729Z,2.62
2018-05-21T22:36:19.284Z,3.72
2018-05-21T22:38:46.790Z,2.72
2018-05-21T22:41:14.301Z,2.25
2018-05-21T22:43:42.864Z,2.15
2018-05-21T22:46:10.350Z,2.03
2018-05-21T22:48:37.872Z,2.58
2018-05-21T22:51:05.414Z,2.65
2018-05-21T22:53:33.706Z,2.30
2018-05-21T22:56:01.278Z,2.22
2018-05-21T22:58:28.766Z,2.33
2018-05-21T23:00:56.321Z,2.60
2018-05-21T23:03:27.834Z,2.45
2018-05-21T23:05:56.588Z,2.40
2018-05-21T23:08:24.106Z,2.22
2018-05-21T23:10:51.626Z,2.28
2018-05-21T23:13:20.008Z,2.58
2018-05-21T23:15:48.378Z,2.40
2018-05-21T23:18:15.873Z,2.05
2018-05-21T23:20:43.389Z,2.20
2018-05-21T23:23:10.907Z,2.17
2018-05-21T23:25:38.412Z,2.25
2018-05-21T23:28:05.908Z,2.30
2018-05-21T23:30:34.001Z,2.53
2018-05-21T23:33:01.509Z,2.50
2018-05-21T23:35:29.815Z,2.40
2018-05-21T23:50:57.383Z,2.40
2018-05-21T23:53:24.892Z,2.60
2018-05-21T23:55:52.384Z,2.60
2018-05-21T23:58:19.912Z,2.50
